createdAt,value
2022-10-23T00:01:45.884Z,24.77
2022-10-23T00:04:25.277Z,19.13
2022-10-23T00:06:52.048Z,20.75
2022-10-23T00:09:22.347Z,18.88
2022-10-23T00:11:50.689Z,24.58
2022-10-23T00:14:19.859Z,28.75
2022-10-23T00:16:46.543Z,25.90
2022-10-23T00:19:13.194Z,27.52
2022-10-23T00:21:40.299Z,26.33
2022-10-23T00:26:38.267Z,40.30
2022-10-23T00:29:04.952Z,44.72
2022-10-23T00:31:31.999Z,36.17
2022-10-23T00:33:59.844Z,30.90
2022-10-23T00:36:26.693Z,33.88
2022-10-23T00:38:53.386Z,21.83
2022-10-23T00:41:23.286Z,21.42
2022-10-23T00:44:01.453Z,27.35
2022-10-23T00:46:29.190Z,29.30
2022-10-23T00:48:56.873Z,27.98
2022-10-23T00:51:25.478Z,30.38
2022-10-23T00:54:19.631Z,24.45
2022-10-23T00:56:44.665Z,22.55
2022-10-23T00:59:12.019Z,16.98
2022-10-23T01:01:38.997Z,15.60
2022-10-23T01:04:07.460Z,17.40
2022-10-23T01:06:49.086Z,21.98
2022-10-23T01:09:15.729Z,27.85
2022-10-23T01:11:52.755Z,13.95
2022-10-23T01:14:32.664Z,15.77
2022-10-23T01:17:23.672Z,15.98
2022-10-23T01:20:10.573Z,20.13
2022-10-23T01:23:10.387Z,13.63
2022-10-23T01:25:57.620Z,19.48
2022-10-23T01:28:52.155Z,23.17
2022-10-23T01:31:46.469Z,21.40
2022-10-23T01:34:20.451Z,14.90
2022-10-23T01:36:49.314Z,18.10
2022-10-23T01:39:22.690Z,16.80
2022-10-23T01:41:57.878Z,16.60
2022-10-23T01:44:52.340Z,23.80
2022-10-23T01:47:23.628Z,15.52
2022-10-23T01:49:58.537Z,14.93
2022-10-23T01:52:25.545Z,15.55
2022-10-23T01:54:56.733Z,16.05
2022-10-23T01:57:25.315Z,13.85
2022-10-23T01:59:58.936Z,17.92
2022-10-23T02:02:27.908Z,15.90
2022-10-23T02:05:22.586Z,10.15
2022-10-23T02:07:49.602Z,8.65
2022-10-23T02:10:16.921Z,9.57
2022-10-23T02:13:05.644Z,9.10
2022-10-23T02:15:43.290Z,10.98
2022-10-23T02:18:20.905Z,14.00
2022-10-23T02:20:56.674Z,13.88
2022-10-23T02:23:56.174Z,13.80
2022-10-23T02:26:46.862Z,13.40
2022-10-23T02:29:15.469Z,20.27
2022-10-23T02:31:45.237Z,17.50
2022-10-23T02:34:12.416Z,18.23
2022-10-23T02:36:39.202Z,17.27
2022-10-23T02:39:05.999Z,13.75
2022-10-23T02:41:32.746Z,17.02
2022-10-23T02:44:20.672Z,18.20
2022-10-23T02:47:09.651Z,18.20
2022-10-23T02:49:51.631Z,25.75
2022-10-23T02:52:45.122Z,16.15
2022-10-23T02:55:33.888Z,17.38
2022-10-23T02:58:18.506Z,14.23
2022-10-23T03:00:55.914Z,15.57
2022-10-23T03:03:33.629Z,15.50
2022-10-23T03:06:00.674Z,12.65
2022-10-23T03:08:27.943Z,14.88
2022-10-23T03:10:54.576Z,14.07
2022-10-23T03:13:23.313Z,16.23
2022-10-23T03:15:50.005Z,10.77
2022-10-23T03:18:16.667Z,15.48
2022-10-23T03:20:49.816Z,15.30
2022-10-23T03:23:16.443Z,19.85
2022-10-23T03:25:43.108Z,27.48
2022-10-23T03:28:10.824Z,20.15
2022-10-23T03:30:37.476Z,24.30
2022-10-23T03:33:04.278Z,22.52
2022-10-23T03:35:34.293Z,23.90
2022-10-23T03:38:01.796Z,22.75
2022-10-23T03:40:28.406Z,30.38
2022-10-23T03:42:55.056Z,22.33
2022-10-23T03:45:21.945Z,19.88
2022-10-23T03:47:50.558Z,16.35
2022-10-23T03:50:18.274Z,21.02
2022-10-23T03:52:45.440Z,31.30
2022-10-23T03:55:13.084Z,19.23
2022-10-23T03:57:39.815Z,26.23
2022-10-23T04:00:07.443Z,26.48
2022-10-23T04:02:43.351Z,21.70
2022-10-23T04:05:10.970Z,29.92
2022-10-23T04:07:39.707Z,27.95
2022-10-23T04:10:06.679Z,35.65
2022-10-23T04:12:34.753Z,31.20
2022-10-23T04:15:01.458Z,39.63
2022-10-23T04:19:59.898Z,25.33
2022-10-23T04:22:28.393Z,18.92
2022-10-23T04:24:55.822Z,23.05
2022-10-23T04:27:22.994Z,28.80
2022-10-23T04:29:49.883Z,20.30
2022-10-23T04:32:16.554Z,26.20
2022-10-23T04:34:44.347Z,24.90
2022-10-23T04:37:11.028Z,30.75
2022-10-23T04:39:38.376Z,38.90
2022-10-23T04:42:05.017Z,34.78
2022-10-23T04:44:31.727Z,27.65
2022-10-23T04:46:58.492Z,35.58
2022-10-23T04:49:25.218Z,35.35
2022-10-23T04:52:10.806Z,28.52
2022-10-23T04:54:57.720Z,34.88
2022-10-23T04:57:31.970Z,37.25
2022-10-23T05:00:13.355Z,38.25
2022-10-23T05:02:48.221Z,38.67
2022-10-23T05:05:17.549Z,39.60
2022-10-23T05:08:04.717Z,43.58
2022-10-23T05:10:41.752Z,42.22
2022-10-23T05:13:14.227Z,34.55
2022-10-23T05:15:41.068Z,56.85
2022-10-23T05:18:18.408Z,51.63
2022-10-23T05:20:46.773Z,77.32
2022-10-23T05:23:17.003Z,64.22
2022-10-23T05:25:53.041Z,40.65
2022-10-23T05:28:19.683Z,42.88
2022-10-23T05:30:46.855Z,42.95
2022-10-23T05:33:15.374Z,40.45
2022-10-23T05:35:44.217Z,44.45
2022-10-23T05:38:13.032Z,38.83
2022-10-23T05:43:17.847Z,47.88
2022-10-23T05:45:50.324Z,61.35
2022-10-23T05:48:35.902Z,51.38
2022-10-23T05:51:23.199Z,57.38
2022-10-23T05:54:20.576Z,61.58
2022-10-23T05:56:59.165Z,50.85
2022-10-23T05:59:41.873Z,61.90
2022-10-23T06:02:47.024Z,65.15
2022-10-23T06:05:30.737Z,67.30
2022-10-23T06:08:14.544Z,71.10
2022-10-23T06:10:41.443Z,61.88
2022-10-23T06:13:10.303Z,52.97
2022-10-23T06:15:37.027Z,56.95
2022-10-23T06:18:08.940Z,44.97
2022-10-23T06:20:40.796Z,47.88
2022-10-23T06:23:17.752Z,50.97
2022-10-23T06:26:04.062Z,45.95
2022-10-23T06:31:11.172Z,50.25
2022-10-23T06:33:38.119Z,45.17
2022-10-23T06:36:08.142Z,40.17
2022-10-23T06:38:37.206Z,33.30
2022-10-23T06:41:05.135Z,39.17
2022-10-23T06:43:37.654Z,37.95
2022-10-23T06:46:30.165Z,34.13
2022-10-23T06:49:16.380Z,37.58
2022-10-23T06:51:48.182Z,33.03
2022-10-23T06:54:16.567Z,46.38
2022-10-23T06:56:58.523Z,48.92
2022-10-23T06:59:35.566Z,47.97
2022-10-23T07:02:03.349Z,45.58
2022-10-23T07:04:30.223Z,36.13
2022-10-23T07:06:57.978Z,33.50
2022-10-23T07:09:30.745Z,20.45
2022-10-23T07:11:57.438Z,22.95
2022-10-23T07:14:35.401Z,20.17
2022-10-23T07:17:04.195Z,25.75
2022-10-23T07:19:30.901Z,19.23
2022-10-23T07:22:00.360Z,15.85
2022-10-23T07:24:50.033Z,16.58
2022-10-23T07:27:25.378Z,15.90
2022-10-23T07:29:56.061Z,18.77
2022-10-23T07:32:24.508Z,15.70
2022-10-23T07:35:26.009Z,13.27
2022-10-23T07:38:00.176Z,13.10
2022-10-23T07:40:30.468Z,12.68
2022-10-23T07:42:57.384Z,11.02
2022-10-23T07:45:24.111Z,10.68
2022-10-23T07:47:52.086Z,9.57
2022-10-23T07:50:20.532Z,11.73
2022-10-23T07:52:48.158Z,15.68
2022-10-23T07:55:17.419Z,14.70
2022-10-23T07:57:50.583Z,12.35
2022-10-23T08:00:28.200Z,11.00
2022-10-23T08:03:04.707Z,13.18
2022-10-23T08:05:32.626Z,9.90
2022-10-23T08:08:01.463Z,9.57
2022-10-23T08:10:29.059Z,8.82
2022-10-23T08:12:56.061Z,13.77
2022-10-23T08:15:38.103Z,9.60
2022-10-23T08:18:15.208Z,8.82
2022-10-23T08:20:47.156Z,10.45
2022-10-23T08:23:18.595Z,8.27
2022-10-23T08:25:46.654Z,9.40
2022-10-23T08:28:16.463Z,11.45
2022-10-23T08:30:52.257Z,10.68
2022-10-23T08:33:19.049Z,11.27
2022-10-23T08:35:45.710Z,9.85
2022-10-23T08:38:12.656Z,10.00
2022-10-23T08:40:48.682Z,10.45
2022-10-23T08:43:50.066Z,11.00
2022-10-23T08:46:42.232Z,14.93
2022-10-23T08:49:34.851Z,12.57
2022-10-23T08:52:14.374Z,12.88
2022-10-23T08:54:57.706Z,15.15
2022-10-23T08:57:33.073Z,12.13
2022-10-23T09:00:04.810Z,11.63
2022-10-23T09:02:35.377Z,12.02
2022-10-23T09:05:02.099Z,15.02
2022-10-23T09:07:56.989Z,14.52
2022-10-23T09:10:37.342Z,13.57
2022-10-23T09:13:39.945Z,12.23
2022-10-23T09:16:31.628Z,10.13
2022-10-23T09:18:58.899Z,15.07
2022-10-23T09:21:28.090Z,13.70
2022-10-23T09:23:55.089Z,11.80
2022-10-23T09:26:22.206Z,13.18
2022-10-23T09:28:57.161Z,13.23
2022-10-23T09:31:23.796Z,16.27
2022-10-23T09:33:59.525Z,16.27
2022-10-23T09:36:29.098Z,16.67
2022-10-23T09:39:01.496Z,17.42
2022-10-23T09:41:36.389Z,18.35
2022-10-23T09:44:22.871Z,19.80
2022-10-23T09:46:53.564Z,18.25
2022-10-23T09:49:25.254Z,21.88
2022-10-23T09:52:11.734Z,19.42
2022-10-23T09:55:00.392Z,18.63
2022-10-23T09:57:32.523Z,19.02
2022-10-23T10:00:04.032Z,19.10
2022-10-23T10:02:38.821Z,19.70
2022-10-23T10:05:33.840Z,18.58
2022-10-23T10:08:22.524Z,19.33
2022-10-23T10:10:59.966Z,19.92
2022-10-23T10:13:33.139Z,18.42
2022-10-23T10:16:33.170Z,19.80
2022-10-23T10:19:17.989Z,20.33
2022-10-23T10:22:16.495Z,18.73
2022-10-23T10:24:59.088Z,19.10
2022-10-23T10:27:56.705Z,18.83
2022-10-23T10:30:24.967Z,19.20
2022-10-23T10:32:57.846Z,19.38
2022-10-23T10:35:42.324Z,19.50
2022-10-23T10:38:29.444Z,19.73
2022-10-23T10:41:21.083Z,20.45
2022-10-23T10:44:10.815Z,20.45
2022-10-23T10:46:49.453Z,20.25
2022-10-23T10:49:20.177Z,21.15
2022-10-23T10:52:31.869Z,23.98
2022-10-23T10:55:24.481Z,21.70
2022-10-23T10:57:59.271Z,23.13
2022-10-23T11:00:29.792Z,22.13
2022-10-23T11:03:02.655Z,21.77
2022-10-23T11:05:41.416Z,21.80
2022-10-23T11:08:36.857Z,22.35
2022-10-23T11:11:33.217Z,22.33
2022-10-23T11:14:00.236Z,20.15
2022-10-23T11:16:36.495Z,20.17
2022-10-23T11:19:26.917Z,20.33
2022-10-23T11:21:58.584Z,20.33
2022-10-23T11:24:45.390Z,19.30
2022-10-23T11:27:40.422Z,18.48
2022-10-23T11:30:10.531Z,18.50
2022-10-23T11:32:43.646Z,19.63
2022-10-23T11:35:42.431Z,21.17
2022-10-23T11:38:31.431Z,19.90
2022-10-23T11:41:02.201Z,20.23
2022-10-23T11:43:55.334Z,20.60
2022-10-23T11:46:21.915Z,20.52
2022-10-23T11:48:49.504Z,21.15
2022-10-23T11:51:37.905Z,23.50
2022-10-23T11:54:13.523Z,21.60
2022-10-23T11:57:10.611Z,22.08
2022-10-23T11:59:50.086Z,21.00
2022-10-23T12:02:31.710Z,22.67
2022-10-23T12:05:06.424Z,21.38
2022-10-23T12:07:36.745Z,21.90
2022-10-23T12:10:26.401Z,21.23
2022-10-23T12:13:05.231Z,20.05
2022-10-23T12:15:34.767Z,21.50
2022-10-23T12:18:14.504Z,19.83
2022-10-23T12:21:16.646Z,20.65
2022-10-23T12:24:11.774Z,19.45
2022-10-23T12:26:40.460Z,19.38
2022-10-23T12:29:30.789Z,20.20
2022-10-23T12:32:21.785Z,20.33
2022-10-23T12:35:19.366Z,22.23
2022-10-23T12:38:07.334Z,19.05
2022-10-23T12:40:34.067Z,18.38
2022-10-23T12:43:01.254Z,18.83
2022-10-23T12:45:34.044Z,18.15
2022-10-23T12:48:00.649Z,19.27
2022-10-23T12:50:29.430Z,18.02
2022-10-23T12:53:01.878Z,18.73
2022-10-23T12:55:35.777Z,18.40
2022-10-23T12:58:02.875Z,19.10
2022-10-23T13:00:29.548Z,18.92
2022-10-23T13:03:01.212Z,19.38
2022-10-23T13:05:28.691Z,19.98
2022-10-23T13:07:57.292Z,19.45
2022-10-23T13:10:37.047Z,19.95
2022-10-23T13:13:07.735Z,20.25
2022-10-23T13:15:52.608Z,18.77
2022-10-23T13:18:19.394Z,19.58
2022-10-23T13:20:58.378Z,21.20
2022-10-23T13:23:32.423Z,18.35
2022-10-23T13:26:05.086Z,18.53
2022-10-23T13:28:33.421Z,17.48
2022-10-23T13:31:08.145Z,17.45
2022-10-23T13:33:43.987Z,18.20
2022-10-23T13:36:13.354Z,17.90
2022-10-23T13:38:59.731Z,16.75
2022-10-23T13:41:28.976Z,17.58
2022-10-23T13:43:55.679Z,17.83
2022-10-23T13:46:25.680Z,17.15
2022-10-23T13:48:52.435Z,17.70
2022-10-23T13:51:23.398Z,16.98
2022-10-23T13:53:52.399Z,17.58
2022-10-23T13:56:20.996Z,17.85
2022-10-23T13:58:48.685Z,19.02
2022-10-23T14:01:37.529Z,18.10
2022-10-23T14:04:05.866Z,19.52
2022-10-23T14:06:35.898Z,19.27
2022-10-23T14:09:03.509Z,19.15
2022-10-23T14:11:30.697Z,18.92
2022-10-23T14:13:57.405Z,19.23
2022-10-23T14:16:24.213Z,19.30
2022-10-23T14:18:50.901Z,18.00
2022-10-23T14:21:20.395Z,18.77
2022-10-23T14:23:48.363Z,18.20
2022-10-23T14:26:17.643Z,19.05
2022-10-23T14:28:44.375Z,17.08
2022-10-23T14:31:13.985Z,17.70
2022-10-23T14:33:41.334Z,18.17
2022-10-23T14:36:08.483Z,17.95
2022-10-23T14:38:35.755Z,17.77
2022-10-23T14:41:02.927Z,17.77
2022-10-23T14:43:30.135Z,19.25
2022-10-23T14:45:56.779Z,17.65
2022-10-23T14:48:23.423Z,17.05
2022-10-23T14:50:50.111Z,17.38
2022-10-23T14:53:17.094Z,15.85
2022-10-23T14:55:43.753Z,16.67
2022-10-23T14:58:10.391Z,15.77
2022-10-23T15:00:37.060Z,15.10
2022-10-23T15:03:04.017Z,15.40
2022-10-23T15:05:30.636Z,15.50
2022-10-23T15:07:58.884Z,15.15
2022-10-23T15:10:25.518Z,16.10
2022-10-23T15:12:52.186Z,16.30
2022-10-23T15:15:18.990Z,16.33
2022-10-23T15:17:45.627Z,16.08
2022-10-23T15:20:12.307Z,14.75
2022-10-23T15:22:39.039Z,15.77
2022-10-23T15:25:06.409Z,15.18
2022-10-23T15:27:33.049Z,15.63
2022-10-23T15:29:59.746Z,15.55
2022-10-23T15:32:26.391Z,14.15
2022-10-23T15:34:53.668Z,14.60
2022-10-23T15:37:20.341Z,14.30
2022-10-23T15:39:47.427Z,14.65
2022-10-23T15:42:14.106Z,14.40
2022-10-23T15:44:41.145Z,15.35
2022-10-23T15:47:07.829Z,14.50
2022-10-23T15:49:34.577Z,13.77
2022-10-23T15:52:02.219Z,14.32
2022-10-23T15:54:31.919Z,13.45
2022-10-23T15:57:01.195Z,13.30
2022-10-23T15:59:29.610Z,14.63
2022-10-23T16:01:56.517Z,14.57
2022-10-23T16:04:23.663Z,14.48
2022-10-23T16:06:50.294Z,14.18
2022-10-23T16:09:17.245Z,14.05
2022-10-23T16:11:44.457Z,13.25
2022-10-23T16:14:14.463Z,13.00
2022-10-23T16:16:41.661Z,12.77
2022-10-23T16:19:09.996Z,13.13
2022-10-23T16:21:36.995Z,12.68
2022-10-23T16:24:05.960Z,12.98
2022-10-23T16:26:33.656Z,12.75
2022-10-23T16:29:03.594Z,13.18
2022-10-23T16:31:30.349Z,13.38
2022-10-23T16:33:59.028Z,13.02
2022-10-23T16:36:26.589Z,14.48
2022-10-23T16:39:18.576Z,14.23
2022-10-23T16:42:04.625Z,13.57
2022-10-23T16:44:52.061Z,12.50
2022-10-23T16:47:18.835Z,11.52
2022-10-23T16:49:45.640Z,10.75
2022-10-23T16:52:12.293Z,17.33
2022-10-23T16:54:39.007Z,10.60
2022-10-23T16:57:05.625Z,11.40
2022-10-23T16:59:32.284Z,18.92
2022-10-23T17:01:58.973Z,11.00
2022-10-23T17:04:25.728Z,11.35
2022-10-23T17:06:52.402Z,9.75
2022-10-23T17:09:19.334Z,9.00
2022-10-23T17:11:46.641Z,10.95
2022-10-23T17:14:18.627Z,10.88
2022-10-23T17:16:51.090Z,8.48
2022-10-23T17:19:40.137Z,7.65
2022-10-23T17:22:12.351Z,10.80
2022-10-23T17:24:40.187Z,10.07
2022-10-23T17:27:07.008Z,14.27
2022-10-23T17:29:34.002Z,39.63
2022-10-23T17:32:00.962Z,10.75
2022-10-23T17:34:27.673Z,8.10
2022-10-23T17:36:55.293Z,10.25
2022-10-23T17:39:26.244Z,11.30
2022-10-23T17:41:53.150Z,6.95
2022-10-23T17:44:20.063Z,8.55
2022-10-23T17:46:53.075Z,8.60
2022-10-23T17:49:20.643Z,13.60
2022-10-23T17:51:52.054Z,13.93
2022-10-23T17:54:18.857Z,13.38
2022-10-23T17:56:45.587Z,19.17
2022-10-23T17:59:14.367Z,19.13
2022-10-23T18:01:43.560Z,12.90
2022-10-23T18:04:10.531Z,33.33
2022-10-23T18:06:42.863Z,17.92
2022-10-23T18:09:09.582Z,49.38
2022-10-23T18:11:42.611Z,14.60
2022-10-23T18:14:14.193Z,11.43
2022-10-23T18:16:40.998Z,15.30
2022-10-23T18:19:07.829Z,29.13
2022-10-23T18:21:35.662Z,20.25
2022-10-23T18:24:02.956Z,22.80
2022-10-23T18:26:31.254Z,24.80
2022-10-23T18:28:59.039Z,29.90
2022-10-23T18:31:27.312Z,19.38
2022-10-23T18:34:03.998Z,18.27
2022-10-23T18:36:33.525Z,27.67
2022-10-23T18:39:00.585Z,10.18
2022-10-23T18:41:27.971Z,13.38
2022-10-23T18:43:55.124Z,12.23
2022-10-23T18:46:22.201Z,18.50
2022-10-23T18:48:50.649Z,18.10
2022-10-23T18:51:20.909Z,23.17
2022-10-23T18:53:48.525Z,19.45
2022-10-23T18:56:21.670Z,23.25
2022-10-23T18:58:53.175Z,13.18
2022-10-23T19:01:20.554Z,10.45
2022-10-23T19:03:47.808Z,10.25
2022-10-23T19:06:16.265Z,13.55
2022-10-23T19:08:44.721Z,10.73
2022-10-23T19:11:13.243Z,16.35
2022-10-23T19:13:40.655Z,21.80
2022-10-23T19:16:09.146Z,27.95
2022-10-23T19:18:38.038Z,17.95
2022-10-23T19:21:06.000Z,14.98
2022-10-23T19:23:36.308Z,19.30
2022-10-23T19:26:13.319Z,16.42
2022-10-23T19:28:43.575Z,13.82
2022-10-23T19:31:11.100Z,13.57
2022-10-23T19:33:38.880Z,19.90
2022-10-23T19:36:07.970Z,11.70
2022-10-23T19:38:36.713Z,18.98
2022-10-23T19:41:03.825Z,14.35
2022-10-23T19:43:30.572Z,14.20
2022-10-23T19:46:00.147Z,17.25
2022-10-23T19:48:26.779Z,18.40
2022-10-23T19:50:53.493Z,20.02
2022-10-23T19:53:20.723Z,14.32
2022-10-23T19:55:47.537Z,12.25
2022-10-23T19:58:14.277Z,22.30
2022-10-23T20:00:41.361Z,13.73
2022-10-23T20:03:07.999Z,16.55
2022-10-23T20:05:34.658Z,19.70
2022-10-23T20:08:01.578Z,17.88
2022-10-23T20:10:28.270Z,43.00
2022-10-23T20:12:56.752Z,19.08
2022-10-23T20:15:29.148Z,13.77
2022-10-23T20:17:55.846Z,13.07
2022-10-23T20:20:22.779Z,10.40
2022-10-23T20:22:53.296Z,12.63
2022-10-23T20:25:22.081Z,14.73
2022-10-23T20:27:48.760Z,10.27
2022-10-23T20:30:16.147Z,12.85
2022-10-23T20:32:43.091Z,13.23
2022-10-23T20:35:10.012Z,12.55
2022-10-23T20:37:36.625Z,12.20
2022-10-23T20:40:03.445Z,13.20
2022-10-23T20:42:30.083Z,13.25
2022-10-23T20:44:56.736Z,13.50
2022-10-23T20:47:23.411Z,16.52
2022-10-23T20:49:50.016Z,19.58
2022-10-23T20:52:16.701Z,23.42
2022-10-23T20:54:43.622Z,17.27
2022-10-23T20:57:10.356Z,16.67
2022-10-23T20:59:37.038Z,19.98
2022-10-23T21:02:04.037Z,16.42
2022-10-23T21:04:30.789Z,14.35
2022-10-23T21:07:09.403Z,17.15
2022-10-23T21:09:38.092Z,10.20
2022-10-23T21:12:06.341Z,17.02
2022-10-23T21:14:33.039Z,10.40
2022-10-23T21:16:59.723Z,8.55
2022-10-23T21:19:26.356Z,7.50
2022-10-23T21:21:54.332Z,9.15
2022-10-23T21:24:21.818Z,8.38
2022-10-23T21:26:48.505Z,8.63
2022-10-23T21:29:19.735Z,7.97
2022-10-23T21:31:55.549Z,7.60
2022-10-23T21:37:11.223Z,9.10
2022-10-23T21:39:36.228Z,6.55
2022-10-23T21:42:02.958Z,7.88
2022-10-23T21:44:29.597Z,8.77
2022-10-23T21:46:56.370Z,9.00
2022-10-23T21:49:23.013Z,10.80
2022-10-23T21:51:49.684Z,7.10
2022-10-23T21:54:16.733Z,11.98
2022-10-23T21:56:48.708Z,11.45
2022-10-23T21:59:18.239Z,11.82
2022-10-23T22:01:46.545Z,8.23
2022-10-23T22:04:15.264Z,7.03
2022-10-23T22:06:43.279Z,11.10
2022-10-23T22:09:12.646Z,6.60
2022-10-23T22:11:39.725Z,18.40
2022-10-23T22:14:06.605Z,8.30
2022-10-23T22:16:33.562Z,13.30
2022-10-23T22:19:00.189Z,10.90
2022-10-23T22:21:29.241Z,23.05
2022-10-23T22:23:57.740Z,15.75
2022-10-23T22:26:28.774Z,13.02
2022-10-23T22:28:58.057Z,12.35
2022-10-23T22:31:28.390Z,10.32
2022-10-23T22:33:56.078Z,12.77
2022-10-23T22:36:23.325Z,8.20
2022-10-23T22:38:50.011Z,10.30
2022-10-23T22:41:17.164Z,14.88
2022-10-23T22:43:43.900Z,5.03
2022-10-23T22:46:16.239Z,8.40
2022-10-23T22:48:43.905Z,8.88
2022-10-23T22:51:15.909Z,11.70
2022-10-23T22:53:43.531Z,10.05
2022-10-23T22:56:15.723Z,14.82
2022-10-23T22:58:42.932Z,13.50
2022-10-23T23:01:35.233Z,8.93
2022-10-23T23:04:13.727Z,17.67
2022-10-23T23:06:48.796Z,12.63
2022-10-23T23:09:18.027Z,9.00
2022-10-23T23:11:51.656Z,9.82
2022-10-23T23:14:22.977Z,9.00
2022-10-23T23:16:51.905Z,8.98
2022-10-23T23:19:18.935Z,8.55
2022-10-23T23:21:45.591Z,9.18
2022-10-23T23:24:12.333Z,10.40
2022-10-23T23:26:39.650Z,9.70
2022-10-23T23:29:06.306Z,12.77
2022-10-23T23:31:33.236Z,12.57
2022-10-23T23:33:59.888Z,10.80
2022-10-23T23:36:27.377Z,11.52
2022-10-23T23:38:55.505Z,12.70
2022-10-23T23:41:22.789Z,11.95
2022-10-23T23:43:49.816Z,13.43
2022-10-23T23:46:17.358Z,15.48
2022-10-23T23:48:47.782Z,14.25
2022-10-23T23:51:17.225Z,15.13
2022-10-23T23:53:44.161Z,18.42
2022-10-23T23:56:11.022Z,17.95
2022-10-23T23:58:37.792Z,16.40
